createdAt,value
2019-01-09T00:01:16.886Z,1.70
2019-01-09T00:03:45.995Z,1.27
2019-01-09T00:06:16.422Z,1.30
2019-01-09T00:08:45.680Z,1.10
2019-01-09T00:11:16.478Z,1.30
2019-01-09T00:13:45.478Z,1.43
2019-01-09T00:16:14.446Z,1.20
2019-01-09T00:18:43.616Z,1.40
2019-01-09T00:21:12.727Z,1.37
2019-01-09T00:23:41.926Z,1.33
2019-01-09T00:26:14.268Z,1.70
2019-01-09T00:28:58.545Z,1.17
2019-01-09T00:31:27.525Z,1.93
2019-01-09T00:33:56.449Z,2.07
2019-01-09T00:36:26.179Z,1.83
2019-01-09T00:38:55.125Z,1.73
2019-01-09T00:41:24.026Z,1.50
2019-01-09T00:43:52.926Z,1.80
2019-01-09T00:46:22.995Z,2.17
2019-01-09T00:48:51.876Z,1.80
2019-01-09T00:51:21.752Z,1.87
2019-01-09T00:53:54.039Z,1.60
2019-01-09T00:56:22.936Z,2.37
2019-01-09T00:58:55.016Z,2.30
2019-01-09T01:01:24.329Z,2.33
2019-01-09T01:04:31.737Z,2.43
2019-01-09T01:07:56.216Z,2.73
2019-01-09T01:10:58.083Z,2.37
2019-01-09T01:14:29.668Z,3.30
2019-01-09T01:17:33.266Z,2.73
2019-01-09T01:20:31.830Z,3.80
2019-01-09T01:23:44.997Z,2.77
2019-01-09T01:26:27.036Z,3.17
2019-01-09T01:29:31.582Z,2.77
2019-01-09T01:32:28.512Z,2.57
2019-01-09T01:35:44.294Z,2.70
2019-01-09T01:38:31.970Z,2.17
2019-01-09T01:41:32.173Z,2.30
2019-01-09T01:44:26.359Z,2.67
2019-01-09T01:51:03.634Z,1.90
2019-01-09T01:53:51.950Z,1.73
2019-01-09T01:56:59.734Z,0.93
2019-01-09T02:00:00.369Z,1.30
2019-01-09T02:03:09.477Z,0.97
2019-01-09T02:06:25.622Z,0.80
2019-01-09T02:09:41.707Z,1.13
2019-01-09T02:12:20.940Z,2.40
2019-01-09T02:15:37.961Z,1.47
2019-01-09T02:18:40.814Z,1.67
2019-01-09T02:22:06.222Z,1.70
2019-01-09T02:24:55.865Z,2.40
2019-01-09T02:27:32.082Z,2.13
2019-01-09T02:30:27.748Z,3.20
2019-01-09T02:33:02.170Z,2.60
2019-01-09T02:35:31.334Z,2.17
2019-01-09T02:38:00.163Z,2.53
2019-01-09T02:40:30.267Z,3.07
2019-01-09T02:42:59.202Z,2.53
2019-01-09T02:45:30.442Z,2.60
2019-01-09T02:47:59.392Z,4.00
2019-01-09T02:50:28.286Z,3.47
2019-01-09T02:52:57.721Z,2.87
2019-01-09T02:55:26.597Z,3.80
2019-01-09T02:57:56.932Z,3.07
2019-01-09T03:00:29.126Z,3.30
2019-01-09T03:02:58.071Z,2.97
2019-01-09T03:05:46.425Z,4.07
2019-01-09T03:08:15.404Z,3.30
2019-01-09T03:10:45.202Z,4.13
2019-01-09T03:13:14.103Z,3.13
2019-01-09T03:15:43.007Z,3.40
2019-01-09T03:18:12.295Z,4.20
2019-01-09T03:20:41.265Z,3.67
2019-01-09T03:23:10.256Z,3.53
2019-01-09T03:25:40.750Z,4.00
2019-01-09T03:28:09.895Z,3.20
2019-01-09T03:30:40.342Z,3.63
2019-01-09T03:33:10.206Z,3.40
2019-01-09T03:35:39.980Z,3.30
2019-01-09T03:38:09.173Z,3.20
2019-01-09T03:40:38.919Z,3.50
2019-01-09T03:43:12.977Z,3.80
2019-01-09T03:46:10.646Z,2.33
2019-01-09T03:48:44.266Z,3.57
2019-01-09T03:51:13.445Z,3.00
2019-01-09T03:53:42.664Z,3.17
2019-01-09T03:56:12.976Z,3.53
2019-01-09T03:58:41.908Z,3.47
2019-01-09T04:01:11.627Z,3.00
2019-01-09T04:03:40.755Z,3.37
2019-01-09T04:06:10.242Z,4.17
2019-01-09T04:08:39.351Z,3.17
2019-01-09T04:11:08.549Z,3.63
2019-01-09T04:13:37.569Z,4.47
2019-01-09T04:16:06.414Z,3.47
2019-01-09T04:18:35.736Z,3.27
2019-01-09T04:21:06.564Z,3.40
2019-01-09T04:24:05.784Z,3.50
2019-01-09T04:26:35.034Z,3.80
2019-01-09T04:29:06.270Z,4.67
2019-01-09T04:31:41.845Z,3.57
2019-01-09T04:34:10.764Z,3.60
2019-01-09T04:36:39.712Z,2.87
2019-01-09T04:39:08.822Z,3.50
2019-01-09T04:41:37.947Z,3.10
2019-01-09T04:44:08.010Z,4.57
2019-01-09T04:46:37.274Z,3.70
2019-01-09T04:49:08.912Z,3.77
2019-01-09T04:51:38.627Z,4.23
2019-01-09T04:54:07.522Z,4.30
2019-01-09T04:56:36.434Z,2.67
2019-01-09T04:59:07.414Z,2.73
2019-01-09T05:01:36.366Z,3.27
2019-01-09T05:04:05.983Z,2.63
2019-01-09T05:06:35.094Z,3.13
2019-01-09T05:09:04.716Z,3.37
2019-01-09T05:11:39.969Z,2.60
2019-01-09T05:14:09.281Z,3.00
2019-01-09T05:16:38.129Z,2.40
2019-01-09T05:19:07.203Z,2.67
2019-01-09T05:21:36.899Z,2.50
2019-01-09T05:24:05.876Z,3.37
2019-01-09T05:26:35.501Z,3.47
2019-01-09T05:29:04.376Z,2.83
2019-01-09T05:31:33.500Z,2.67
2019-01-09T05:34:07.988Z,2.40
2019-01-09T05:36:36.928Z,3.20
2019-01-09T05:39:10.146Z,3.27
2019-01-09T05:41:41.486Z,3.27
2019-01-09T05:44:10.373Z,4.50
2019-01-09T05:46:43.374Z,3.10
2019-01-09T05:49:12.355Z,3.00
2019-01-09T05:51:41.434Z,4.17
2019-01-09T05:54:10.974Z,3.10
2019-01-09T05:56:39.897Z,3.73
2019-01-09T05:59:09.057Z,3.47
2019-01-09T06:01:38.110Z,3.07
2019-01-09T06:04:08.798Z,2.40
2019-01-09T06:06:38.226Z,3.20
2019-01-09T06:09:07.991Z,2.70
2019-01-09T06:11:36.998Z,2.50
2019-01-09T06:14:06.273Z,2.43
2019-01-09T06:16:35.434Z,2.63
2019-01-09T06:19:04.419Z,2.40
2019-01-09T06:21:39.866Z,2.40
2019-01-09T06:24:10.978Z,2.37
2019-01-09T06:26:39.902Z,2.27
2019-01-09T06:29:08.739Z,2.40
2019-01-09T06:31:37.677Z,2.10
2019-01-09T06:34:07.438Z,2.90
2019-01-09T06:36:36.722Z,2.43
2019-01-09T06:39:08.924Z,2.30
2019-01-09T06:41:37.927Z,2.60
2019-01-09T06:44:07.299Z,2.83
2019-01-09T06:46:36.547Z,2.70
2019-01-09T06:49:05.426Z,2.60
2019-01-09T06:52:31.816Z,3.10
2019-01-09T06:55:01.333Z,2.97
2019-01-09T06:57:30.275Z,3.40
2019-01-09T06:59:59.499Z,3.43
2019-01-09T07:02:28.675Z,3.00
2019-01-09T07:04:57.605Z,3.30
2019-01-09T07:07:35.796Z,2.80
2019-01-09T07:10:00.915Z,3.23
2019-01-09T07:12:30.053Z,3.67
2019-01-09T07:14:59.048Z,3.60
2019-01-09T07:17:28.238Z,2.00
2019-01-09T07:19:57.146Z,2.17
2019-01-09T07:22:26.273Z,2.00
2019-01-09T07:24:56.728Z,1.70
2019-01-09T07:27:26.055Z,1.77
2019-01-09T07:29:58.970Z,2.07
2019-01-09T07:32:27.914Z,1.37
2019-01-09T07:34:56.748Z,1.10
2019-01-09T07:37:25.669Z,1.00
2019-01-09T07:39:54.801Z,1.60
2019-01-09T07:42:26.701Z,1.47
2019-01-09T07:44:55.863Z,2.47
2019-01-09T07:47:25.593Z,2.87
2019-01-09T07:49:54.483Z,2.90
2019-01-09T07:52:52.001Z,3.67
2019-01-09T07:55:20.957Z,2.33
2019-01-09T07:57:49.936Z,2.37
2019-01-09T08:00:19.483Z,2.43
2019-01-09T08:02:48.399Z,2.40
2019-01-09T08:05:18.133Z,2.70
2019-01-09T08:07:53.911Z,2.30
2019-01-09T08:10:18.630Z,2.13
2019-01-09T08:12:47.827Z,2.33
2019-01-09T08:15:17.100Z,2.77
2019-01-09T08:17:45.912Z,2.33
2019-01-09T08:20:18.410Z,2.73
2019-01-09T08:22:50.867Z,2.90
2019-01-09T08:25:20.146Z,3.80
2019-01-09T08:27:48.990Z,2.67
2019-01-09T08:30:17.948Z,2.73
2019-01-09T08:32:47.162Z,3.03
2019-01-09T08:35:16.181Z,3.97
2019-01-09T08:37:48.118Z,4.40
2019-01-09T08:40:19.602Z,3.37
2019-01-09T08:45:29.620Z,3.33
2019-01-09T08:47:58.451Z,3.93
2019-01-09T08:50:27.944Z,3.90
2019-01-09T08:52:56.765Z,3.70
2019-01-09T08:55:25.672Z,3.30
2019-01-09T08:57:54.871Z,2.80
2019-01-09T09:00:23.918Z,3.07
2019-01-09T09:02:53.690Z,2.60
2019-01-09T09:05:22.934Z,2.77
2019-01-09T09:08:02.152Z,3.50
2019-01-09T09:10:34.575Z,3.10
2019-01-09T09:13:06.839Z,3.00
2019-01-09T09:15:36.756Z,3.00
2019-01-09T09:18:06.819Z,3.70
2019-01-09T09:20:36.074Z,3.13
2019-01-09T09:23:04.999Z,2.90
2019-01-09T09:25:34.208Z,2.93
2019-01-09T09:28:03.250Z,3.63
2019-01-09T09:30:32.808Z,3.47
2019-01-09T09:33:04.762Z,3.50
2019-01-09T09:35:33.674Z,3.70
2019-01-09T09:38:06.267Z,3.30
2019-01-09T09:40:35.252Z,3.53
2019-01-09T09:43:04.538Z,4.00
2019-01-09T09:45:33.557Z,3.20
2019-01-09T09:48:05.059Z,3.57
2019-01-09T09:50:34.172Z,4.03
2019-01-09T09:53:06.456Z,3.70
2019-01-09T09:58:11.641Z,3.33
2019-01-09T10:00:40.843Z,3.30
2019-01-09T10:03:09.882Z,4.10
2019-01-09T10:05:38.858Z,3.97
2019-01-09T10:08:07.831Z,3.30
2019-01-09T10:10:36.819Z,3.30
2019-01-09T10:13:06.042Z,3.60
2019-01-09T10:15:37.142Z,2.93
2019-01-09T10:18:06.713Z,3.77
2019-01-09T10:20:35.873Z,3.57
2019-01-09T10:23:06.172Z,3.53
2019-01-09T10:25:35.319Z,4.17
2019-01-09T10:28:04.453Z,4.57
2019-01-09T10:30:33.423Z,4.60
2019-01-09T10:33:03.484Z,3.47
2019-01-09T10:35:32.472Z,4.37
2019-01-09T10:38:01.371Z,4.37
2019-01-09T10:40:36.074Z,3.87
2019-01-09T10:43:01.841Z,4.03
2019-01-09T10:45:31.185Z,3.73
2019-01-09T10:48:03.343Z,3.83
2019-01-09T10:50:32.448Z,3.00
2019-01-09T10:53:02.124Z,3.83
2019-01-09T10:55:31.019Z,3.97
2019-01-09T10:58:00.062Z,4.80
2019-01-09T11:00:29.144Z,3.97
2019-01-09T11:02:58.088Z,3.87
2019-01-09T11:05:27.141Z,3.67
2019-01-09T11:07:59.282Z,3.67
2019-01-09T11:10:29.160Z,3.90
2019-01-09T11:12:58.198Z,3.53
2019-01-09T11:15:27.140Z,3.67
2019-01-09T11:17:56.195Z,4.33
2019-01-09T11:20:25.762Z,4.00
2019-01-09T11:22:58.237Z,4.20
2019-01-09T11:25:28.530Z,4.00
2019-01-09T11:27:57.767Z,3.20
2019-01-09T11:30:27.097Z,3.33
2019-01-09T11:32:56.061Z,3.63
2019-01-09T11:35:25.951Z,4.47
2019-01-09T11:37:55.300Z,3.47
2019-01-09T11:40:24.711Z,3.67
2019-01-09T11:42:55.012Z,3.30
2019-01-09T11:45:29.045Z,3.97
2019-01-09T11:47:58.144Z,3.97
2019-01-09T11:50:30.959Z,3.47
2019-01-09T11:53:38.577Z,2.83
2019-01-09T11:56:08.962Z,2.80
2019-01-09T11:58:37.941Z,3.43
2019-01-09T12:01:06.937Z,2.83
2019-01-09T12:06:09.957Z,2.57
2019-01-09T12:08:39.311Z,2.80
2019-01-09T12:11:11.045Z,2.77
2019-01-09T12:13:42.420Z,2.47
2019-01-09T12:16:11.773Z,2.47
2019-01-09T12:18:40.797Z,2.90
2019-01-09T12:21:16.427Z,3.90
2019-01-09T12:23:40.711Z,2.53
2019-01-09T12:26:10.133Z,2.93
2019-01-09T12:28:39.952Z,2.50
2019-01-09T12:31:09.348Z,2.63
2019-01-09T12:33:38.775Z,2.10
2019-01-09T12:36:07.837Z,2.37
2019-01-09T12:38:38.519Z,2.63
2019-01-09T12:41:08.223Z,2.23
2019-01-09T12:43:37.183Z,2.00
2019-01-09T12:46:07.015Z,2.37
2019-01-09T12:48:35.896Z,1.47
2019-01-09T12:51:05.338Z,1.70
2019-01-09T12:53:35.152Z,2.13
2019-01-09T12:56:04.506Z,2.07
2019-01-09T12:58:33.513Z,1.57
2019-01-09T13:01:02.663Z,2.30
2019-01-09T13:03:34.789Z,2.00
2019-01-09T13:06:03.857Z,1.60
2019-01-09T13:08:32.922Z,2.13
2019-01-09T13:11:02.304Z,1.53
2019-01-09T13:13:32.089Z,1.87
2019-01-09T13:16:01.243Z,2.13
2019-01-09T13:18:30.275Z,2.00
2019-01-09T13:21:02.747Z,1.80
2019-01-09T13:23:31.984Z,1.57
2019-01-09T13:26:02.931Z,1.17
2019-01-09T13:28:38.660Z,1.13
2019-01-09T13:31:08.039Z,1.57
2019-01-09T13:33:37.118Z,1.43
2019-01-09T13:36:06.693Z,1.77
2019-01-09T13:38:36.306Z,1.40
2019-01-09T13:43:44.110Z,1.23
2019-01-09T13:46:14.550Z,1.50
2019-01-09T13:48:43.582Z,1.57
2019-01-09T13:51:12.885Z,1.60
2019-01-09T13:53:41.876Z,2.00
2019-01-09T13:56:11.279Z,1.27
2019-01-09T13:58:45.574Z,1.30
2019-01-09T14:01:14.515Z,1.50
2019-01-09T14:03:43.436Z,1.57
2019-01-09T14:06:13.047Z,1.87
2019-01-09T14:08:42.362Z,1.40
2019-01-09T14:11:11.453Z,1.60
2019-01-09T14:13:41.535Z,1.70
2019-01-09T14:16:14.219Z,1.60
2019-01-09T14:18:43.514Z,1.30
2019-01-09T14:21:13.992Z,1.43
2019-01-09T14:23:43.283Z,1.43
2019-01-09T14:26:12.774Z,1.70
2019-01-09T14:28:41.937Z,1.20
2019-01-09T14:31:11.116Z,1.37
2019-01-09T14:33:46.412Z,1.50
2019-01-09T14:36:15.815Z,1.70
2019-01-09T14:38:48.233Z,1.47
2019-01-09T14:41:17.291Z,1.50
2019-01-09T14:43:51.466Z,1.20
2019-01-09T14:46:22.071Z,2.00
2019-01-09T14:48:51.530Z,1.73
2019-01-09T14:51:20.776Z,1.63
2019-01-09T14:53:49.750Z,1.40
2019-01-09T14:56:20.583Z,1.70
2019-01-09T14:58:50.626Z,1.90
2019-01-09T15:01:19.973Z,1.07
2019-01-09T15:03:49.263Z,1.20
2019-01-09T15:06:19.498Z,1.30
2019-01-09T15:08:48.743Z,1.67
2019-01-09T15:11:17.841Z,1.77
2019-01-09T15:13:47.157Z,1.30
2019-01-09T15:16:16.165Z,1.20
2019-01-09T15:18:45.066Z,1.40
2019-01-09T15:21:17.199Z,1.97
2019-01-09T15:23:48.932Z,1.23
2019-01-09T15:26:18.431Z,1.27
2019-01-09T15:28:47.810Z,1.73
2019-01-09T15:31:19.840Z,1.80
2019-01-09T15:33:48.871Z,1.40
2019-01-09T15:36:17.860Z,1.40
2019-01-09T15:38:46.901Z,2.00
2019-01-09T15:41:15.891Z,1.67
2019-01-09T15:43:45.863Z,1.50
2019-01-09T15:46:15.318Z,2.07
2019-01-09T15:48:44.568Z,2.50
2019-01-09T15:51:14.327Z,1.17
2019-01-09T15:53:43.560Z,1.70
2019-01-09T15:56:13.136Z,2.07
2019-01-09T15:58:42.876Z,1.57
2019-01-09T16:01:12.392Z,1.47
2019-01-09T16:03:41.817Z,1.50
2019-01-09T16:06:11.216Z,1.90
2019-01-09T16:08:40.444Z,1.27
2019-01-09T16:11:09.615Z,1.53
2019-01-09T16:13:38.781Z,1.67
2019-01-09T16:16:09.188Z,1.93
2019-01-09T16:18:38.769Z,1.93
2019-01-09T16:21:07.809Z,1.60
2019-01-09T16:23:37.025Z,2.67
2019-01-09T16:26:06.271Z,2.10
2019-01-09T16:28:35.380Z,1.60
2019-01-09T16:31:25.396Z,1.80
2019-01-09T16:33:54.771Z,2.60
2019-01-09T16:38:55.028Z,3.00
2019-01-09T16:41:24.511Z,2.27
2019-01-09T16:43:56.717Z,2.00
2019-01-09T16:46:25.908Z,2.10
2019-01-09T16:48:55.080Z,1.77
2019-01-09T16:51:24.704Z,1.47
2019-01-09T16:53:53.893Z,2.60
2019-01-09T16:56:23.431Z,1.63
2019-01-09T16:58:52.752Z,1.80
2019-01-09T17:01:22.064Z,1.30
2019-01-09T17:03:51.789Z,1.77
2019-01-09T17:06:24.732Z,1.97
2019-01-09T17:08:54.292Z,1.90
2019-01-09T17:11:23.382Z,2.27
2019-01-09T17:13:53.582Z,2.47
2019-01-09T17:16:22.930Z,1.90
2019-01-09T17:18:52.741Z,2.03
2019-01-09T17:21:23.118Z,2.07
2019-01-09T17:23:52.215Z,2.20
2019-01-09T17:26:21.583Z,2.07
2019-01-09T17:28:50.929Z,2.07
2019-01-09T17:31:19.876Z,2.20
2019-01-09T17:33:50.785Z,1.90
2019-01-09T17:36:20.890Z,2.23
2019-01-09T17:38:49.773Z,2.00
2019-01-09T17:41:19.279Z,1.97
2019-01-09T17:43:48.332Z,1.97
2019-01-09T17:46:17.255Z,1.80
2019-01-09T17:48:46.089Z,1.67
2019-01-09T17:51:22.787Z,2.20
2019-01-09T17:53:51.618Z,2.23
2019-01-09T17:56:23.809Z,1.70
2019-01-09T17:58:52.781Z,2.10
2019-01-09T18:01:21.822Z,1.30
2019-01-09T18:03:52.059Z,1.87
2019-01-09T18:06:21.153Z,1.80
2019-01-09T18:08:53.209Z,1.80
2019-01-09T18:11:27.920Z,1.80
2019-01-09T18:13:56.844Z,1.90
2019-01-09T18:16:26.200Z,1.73
2019-01-09T18:18:55.538Z,2.03
2019-01-09T18:21:27.064Z,1.90
2019-01-09T18:23:56.279Z,1.87
2019-01-09T18:26:28.492Z,1.87
2019-01-09T18:28:57.459Z,2.73
2019-01-09T18:32:16.733Z,2.00
2019-01-09T18:35:11.418Z,2.27
2019-01-09T18:38:16.293Z,2.07
2019-01-09T18:41:05.982Z,1.70
2019-01-09T18:44:04.062Z,2.23
2019-01-09T18:46:55.817Z,1.60
2019-01-09T18:50:30.477Z,1.93
2019-01-09T18:53:35.148Z,1.67
2019-01-09T18:56:05.029Z,1.40
2019-01-09T18:58:34.021Z,2.53
2019-01-09T19:01:03.117Z,2.13
2019-01-09T19:03:32.922Z,2.10
2019-01-09T19:06:02.986Z,2.30
2019-01-09T19:08:32.086Z,2.10
2019-01-09T19:11:07.674Z,2.33
2019-01-09T19:13:32.129Z,1.87
2019-01-09T19:16:01.151Z,2.17
2019-01-09T19:18:30.383Z,2.37
2019-01-09T19:20:59.955Z,2.17
2019-01-09T19:23:29.137Z,2.30
2019-01-09T19:25:58.503Z,2.50
2019-01-09T19:28:28.030Z,2.03
2019-01-09T19:30:57.239Z,1.80
2019-01-09T19:33:26.295Z,2.07
2019-01-09T19:35:58.674Z,2.60
2019-01-09T19:38:28.108Z,2.77
2019-01-09T19:40:59.790Z,1.90
2019-01-09T19:43:30.178Z,2.10
2019-01-09T19:46:01.171Z,2.50
2019-01-09T19:48:33.585Z,2.30
2019-01-09T19:51:07.024Z,2.77
2019-01-09T19:53:36.253Z,2.70
2019-01-09T19:56:05.945Z,2.70
2019-01-09T19:58:35.082Z,2.50
2019-01-09T20:01:04.566Z,2.60
2019-01-09T20:03:34.118Z,2.63
2019-01-09T20:06:03.765Z,2.20
2019-01-09T20:08:33.044Z,2.40
2019-01-09T20:11:02.383Z,1.90
2019-01-09T20:13:32.301Z,2.10
2019-01-09T20:16:01.672Z,2.00
2019-01-09T20:21:06.085Z,2.37
2019-01-09T20:23:35.818Z,2.13
2019-01-09T20:26:05.033Z,1.97
2019-01-09T20:28:34.802Z,2.20
2019-01-09T20:31:04.364Z,1.90
2019-01-09T20:33:34.538Z,2.27
2019-01-09T20:36:03.608Z,2.23
2019-01-09T20:38:36.419Z,2.00
2019-01-09T20:41:06.145Z,2.40
2019-01-09T20:46:11.611Z,1.60
2019-01-09T20:48:40.748Z,2.17
2019-01-09T20:51:10.104Z,2.40
2019-01-09T20:53:40.099Z,2.50
2019-01-09T20:56:09.692Z,1.97
2019-01-09T20:58:39.131Z,2.17
2019-01-09T21:01:08.684Z,2.67
2019-01-09T21:03:37.816Z,2.57
2019-01-09T21:06:07.908Z,2.20
2019-01-09T21:08:37.184Z,1.90
2019-01-09T21:11:07.929Z,1.90
2019-01-09T21:13:40.236Z,2.33
2019-01-09T21:16:10.113Z,2.40
2019-01-09T21:18:40.146Z,2.10
2019-01-09T21:21:09.741Z,2.00
2019-01-09T21:23:39.021Z,2.20
2019-01-09T21:26:08.425Z,1.87
2019-01-09T21:28:38.239Z,1.73
2019-01-09T21:31:10.483Z,1.90
2019-01-09T21:33:40.701Z,2.33
2019-01-09T21:36:10.267Z,1.80
2019-01-09T21:38:39.254Z,1.77
2019-01-09T21:41:08.370Z,2.17
2019-01-09T21:43:37.471Z,1.83
2019-01-09T21:46:08.573Z,2.00
2019-01-09T21:48:38.198Z,1.73
2019-01-09T21:51:07.488Z,2.17
2019-01-09T21:56:25.209Z,1.70
2019-01-09T21:58:54.487Z,1.73
2019-01-09T22:01:23.606Z,1.97
2019-01-09T22:03:52.814Z,2.17
2019-01-09T22:06:22.791Z,1.97
2019-01-09T22:08:51.809Z,1.67
2019-01-09T22:11:20.819Z,2.80
2019-01-09T22:13:50.065Z,1.77
2019-01-09T22:16:19.850Z,1.77
2019-01-09T22:18:50.934Z,1.83
2019-01-09T22:21:19.538Z,2.27
2019-01-09T22:23:48.538Z,1.87
2019-01-09T22:26:18.057Z,1.83
2019-01-09T22:28:47.347Z,1.53
2019-01-09T22:31:16.351Z,1.63
2019-01-09T22:33:45.750Z,2.00
2019-01-09T22:36:14.817Z,2.50
2019-01-09T22:38:43.827Z,2.43
2019-01-09T22:44:43.472Z,2.03
2019-01-09T22:47:12.614Z,1.80
2019-01-09T22:49:41.611Z,1.63
2019-01-09T22:52:13.486Z,1.70
2019-01-09T22:54:42.697Z,2.57
2019-01-09T22:57:11.942Z,1.67
2019-01-09T22:59:41.046Z,1.97
2019-01-09T23:02:13.035Z,1.90
2019-01-09T23:04:43.818Z,1.90
2019-01-09T23:07:12.846Z,2.33
2019-01-09T23:09:41.852Z,2.40
2019-01-09T23:12:10.809Z,2.87
2019-01-09T23:14:39.782Z,2.30
2019-01-09T23:20:03.602Z,1.80
2019-01-09T23:22:32.626Z,2.20
2019-01-09T23:25:01.959Z,2.00
2019-01-09T23:27:31.122Z,2.23
2019-01-09T23:30:00.182Z,1.97
2019-01-09T23:32:29.465Z,2.33
2019-01-09T23:35:00.029Z,2.33
2019-01-09T23:37:28.895Z,1.90
2019-01-09T23:39:57.814Z,2.30
2019-01-09T23:42:31.564Z,1.80
2019-01-09T23:45:02.973Z,2.63
2019-01-09T23:47:32.329Z,2.20
2019-01-09T23:50:04.564Z,1.70
2019-01-09T23:52:33.486Z,1.73
2019-01-09T23:55:04.103Z,1.93
2019-01-09T23:57:33.331Z,2.07
